sensor_id;sensor_type;location;lat;lon;timestamp;P1;durP1;ratioP1;P2;durP2;ratioP2
19436;SDS011;9854;50.968;4.168;2022-10-16T00:01:24;5.35;;;1.27;;
19436;SDS011;9854;50.968;4.168;2022-10-16T00:03:52;4.68;;;1.13;;
19436;SDS011;9854;50.968;4.168;2022-10-16T00:06:18;1.75;;;0.90;;
19436;SDS011;9854;50.968;4.168;2022-10-16T00:08:45;3.30;;;1.35;;
19436;SDS011;9854;50.968;4.168;2022-10-16T00:11:12;5.53;;;1.40;;
19436;SDS011;9854;50.968;4.168;2022-10-16T00:13:40;6.18;;;1.60;;
19436;SDS011;9854;50.968;4.168;2022-10-16T00:16:07;1.70;;;1.00;;
19436;SDS011;9854;50.968;4.168;2022-10-16T00:18:34;3.15;;;1.30;;
19436;SDS011;9854;50.968;4.168;2022-10-16T00:21:07;2.20;;;1.10;;
19436;SDS011;9854;50.968;4.168;2022-10-16T00:23:37;2.92;;;1.27;;
19436;SDS011;9854;50.968;4.168;2022-10-16T00:26:04;1.00;;;1.00;;
19436;SDS011;9854;50.968;4.168;2022-10-16T00:28:32;2.38;;;1.00;;
19436;SDS011;9854;50.968;4.168;2022-10-16T00:30:57;1.80;;;1.20;;
19436;SDS011;9854;50.968;4.168;2022-10-16T00:33:23;1.83;;;1.42;;
19436;SDS011;9854;50.968;4.168;2022-10-16T00:35:49;1.35;;;1.13;;
19436;SDS011;9854;50.968;4.168;2022-10-16T00:38:15;3.85;;;1.10;;
19436;SDS011;9854;50.968;4.168;2022-10-16T00:40:41;3.63;;;1.30;;
19436;SDS011;9854;50.968;4.168;2022-10-16T00:46:01;1.80;;;1.27;;
19436;SDS011;9854;50.968;4.168;2022-10-16T00:48:29;1.20;;;1.00;;
19436;SDS011;9854;50.968;4.168;2022-10-16T00:50:56;1.98;;;0.98;;
19436;SDS011;9854;50.968;4.168;2022-10-16T00:53:23;2.90;;;1.20;;
19436;SDS011;9854;50.968;4.168;2022-10-16T00:55:49;5.13;;;1.27;;
19436;SDS011;9854;50.968;4.168;2022-10-16T00:58:15;2.25;;;1.27;;
19436;SDS011;9854;50.968;4.168;2022-10-16T01:00:41;1.05;;;0.95;;
19436;SDS011;9854;50.968;4.168;2022-10-16T01:03:22;2.30;;;1.40;;
19436;SDS011;9854;50.968;4.168;2022-10-16T01:05:51;2.10;;;1.20;;
19436;SDS011;9854;50.968;4.168;2022-10-16T01:11:17;1.98;;;1.20;;
19436;SDS011;9854;50.968;4.168;2022-10-16T01:13:53;3.85;;;1.00;;
19436;SDS011;9854;50.968;4.168;2022-10-16T01:19:05;1.80;;;1.42;;
19436;SDS011;9854;50.968;4.168;2022-10-16T01:21:54;2.10;;;1.10;;
19436;SDS011;9854;50.968;4.168;2022-10-16T01:32:47;4.10;;;1.23;;
19436;SDS011;9854;50.968;4.168;2022-10-16T01:35:18;3.03;;;1.52;;
19436;SDS011;9854;50.968;4.168;2022-10-16T01:40:17;1.98;;;1.40;;
19436;SDS011;9854;50.968;4.168;2022-10-16T01:42:50;3.72;;;1.65;;
19436;SDS011;9854;50.968;4.168;2022-10-16T01:45:21;4.68;;;1.48;;
19436;SDS011;9854;50.968;4.168;2022-10-16T01:47:47;1.60;;;1.30;;
19436;SDS011;9854;50.968;4.168;2022-10-16T01:50:15;1.38;;;1.25;;
19436;SDS011;9854;50.968;4.168;2022-10-16T01:52:43;4.18;;;1.77;;
19436;SDS011;9854;50.968;4.168;2022-10-16T01:55:12;5.22;;;1.50;;
19436;SDS011;9854;50.968;4.168;2022-10-16T01:57:42;3.42;;;1.55;;
19436;SDS011;9854;50.968;4.168;2022-10-16T02:00:12;1.90;;;1.40;;
19436;SDS011;9854;50.968;4.168;2022-10-16T02:02:41;6.18;;;1.50;;
19436;SDS011;9854;50.968;4.168;2022-10-16T02:07:44;5.05;;;1.77;;
19436;SDS011;9854;50.968;4.168;2022-10-16T02:10:09;2.67;;;1.60;;
19436;SDS011;9854;50.968;4.168;2022-10-16T02:12:36;6.53;;;1.40;;
19436;SDS011;9854;50.968;4.168;2022-10-16T02:15:06;1.83;;;1.65;;
19436;SDS011;9854;50.968;4.168;2022-10-16T02:17:32;3.03;;;1.70;;
19436;SDS011;9854;50.968;4.168;2022-10-16T02:19:57;4.30;;;1.98;;
19436;SDS011;9854;50.968;4.168;2022-10-16T02:22:32;5.57;;;1.60;;
19436;SDS011;9854;50.968;4.168;2022-10-16T02:25:12;1.58;;;1.30;;
19436;SDS011;9854;50.968;4.168;2022-10-16T02:30:40;2.92;;;1.60;;
19436;SDS011;9854;50.968;4.168;2022-10-16T02:33:10;4.22;;;1.73;;
19436;SDS011;9854;50.968;4.168;2022-10-16T02:35:38;3.30;;;1.60;;
19436;SDS011;9854;50.968;4.168;2022-10-16T02:38:05;3.00;;;1.90;;
19436;SDS011;9854;50.968;4.168;2022-10-16T02:40:32;3.50;;;1.48;;
19436;SDS011;9854;50.968;4.168;2022-10-16T02:42:59;2.25;;;1.70;;
19436;SDS011;9854;50.968;4.168;2022-10-16T02:45:24;6.88;;;1.65;;
19436;SDS011;9854;50.968;4.168;2022-10-16T02:47:50;3.13;;;1.60;;
19436;SDS011;9854;50.968;4.168;2022-10-16T02:50:16;3.35;;;1.60;;
19436;SDS011;9854;50.968;4.168;2022-10-16T02:52:42;2.35;;;2.05;;
19436;SDS011;9854;50.968;4.168;2022-10-16T02:55:08;5.30;;;2.05;;
19436;SDS011;9854;50.968;4.168;2022-10-16T02:57:34;3.80;;;1.77;;
19436;SDS011;9854;50.968;4.168;2022-10-16T03:00:02;3.63;;;1.80;;
19436;SDS011;9854;50.968;4.168;2022-10-16T03:02:32;2.45;;;1.65;;
19436;SDS011;9854;50.968;4.168;2022-10-16T03:04:57;1.80;;;1.70;;
19436;SDS011;9854;50.968;4.168;2022-10-16T03:07:23;2.42;;;1.80;;
19436;SDS011;9854;50.968;4.168;2022-10-16T03:09:49;4.57;;;2.20;;
19436;SDS011;9854;50.968;4.168;2022-10-16T03:12:14;7.00;;;1.92;;
19436;SDS011;9854;50.968;4.168;2022-10-16T03:14:40;3.75;;;1.95;;
19436;SDS011;9854;50.968;4.168;2022-10-16T03:17:05;6.50;;;2.20;;
19436;SDS011;9854;50.968;4.168;2022-10-16T03:19:31;6.47;;;2.30;;
19436;SDS011;9854;50.968;4.168;2022-10-16T03:21:57;10.55;;;2.10;;
19436;SDS011;9854;50.968;4.168;2022-10-16T03:24:22;4.03;;;1.90;;
19436;SDS011;9854;50.968;4.168;2022-10-16T03:26:48;3.72;;;1.95;;
19436;SDS011;9854;50.968;4.168;2022-10-16T03:29:14;3.53;;;2.25;;
19436;SDS011;9854;50.968;4.168;2022-10-16T03:31:39;1.98;;;1.88;;
19436;SDS011;9854;50.968;4.168;2022-10-16T03:34:05;2.65;;;2.20;;
19436;SDS011;9854;50.968;4.168;2022-10-16T03:36:31;6.10;;;1.80;;
19436;SDS011;9854;50.968;4.168;2022-10-16T03:38:56;7.68;;;2.35;;
19436;SDS011;9854;50.968;4.168;2022-10-16T03:41:22;2.80;;;1.75;;
19436;SDS011;9854;50.968;4.168;2022-10-16T03:43:47;7.93;;;2.67;;
19436;SDS011;9854;50.968;4.168;2022-10-16T03:46:13;3.92;;;2.17;;
19436;SDS011;9854;50.968;4.168;2022-10-16T03:48:38;6.85;;;2.30;;
19436;SDS011;9854;50.968;4.168;2022-10-16T03:51:05;6.03;;;2.00;;
19436;SDS011;9854;50.968;4.168;2022-10-16T03:53:31;6.40;;;2.25;;
19436;SDS011;9854;50.968;4.168;2022-10-16T03:55:57;5.18;;;2.40;;
19436;SDS011;9854;50.968;4.168;2022-10-16T03:58:23;5.57;;;2.03;;
19436;SDS011;9854;50.968;4.168;2022-10-16T04:00:49;4.63;;;2.47;;
19436;SDS011;9854;50.968;4.168;2022-10-16T04:03:14;4.20;;;2.20;;
19436;SDS011;9854;50.968;4.168;2022-10-16T04:05:40;8.80;;;2.47;;
19436;SDS011;9854;50.968;4.168;2022-10-16T04:08:06;5.93;;;2.20;;
19436;SDS011;9854;50.968;4.168;2022-10-16T04:10:31;5.65;;;2.35;;
19436;SDS011;9854;50.968;4.168;2022-10-16T04:12:57;2.70;;;2.50;;
19436;SDS011;9854;50.968;4.168;2022-10-16T04:15:23;8.50;;;2.53;;
19436;SDS011;9854;50.968;4.168;2022-10-16T04:17:50;5.05;;;2.40;;
19436;SDS011;9854;50.968;4.168;2022-10-16T04:20:16;5.85;;;2.58;;
19436;SDS011;9854;50.968;4.168;2022-10-16T04:22:42;3.28;;;2.50;;
19436;SDS011;9854;50.968;4.168;2022-10-16T04:25:07;9.07;;;2.25;;
19436;SDS011;9854;50.968;4.168;2022-10-16T04:27:33;4.90;;;2.67;;
19436;SDS011;9854;50.968;4.168;2022-10-16T04:30:00;6.40;;;2.28;;
19436;SDS011;9854;50.968;4.168;2022-10-16T04:32:26;12.23;;;2.63;;
19436;SDS011;9854;50.968;4.168;2022-10-16T04:34:52;4.13;;;2.53;;
19436;SDS011;9854;50.968;4.168;2022-10-16T04:37:18;5.55;;;2.50;;
19436;SDS011;9854;50.968;4.168;2022-10-16T04:39:44;2.80;;;2.20;;
19436;SDS011;9854;50.968;4.168;2022-10-16T04:42:10;7.55;;;2.70;;
19436;SDS011;9854;50.968;4.168;2022-10-16T04:44:36;3.10;;;2.20;;
19436;SDS011;9854;50.968;4.168;2022-10-16T04:47:01;6.40;;;2.53;;
19436;SDS011;9854;50.968;4.168;2022-10-16T04:49:27;7.10;;;2.40;;
19436;SDS011;9854;50.968;4.168;2022-10-16T04:51:52;4.65;;;2.00;;
19436;SDS011;9854;50.968;4.168;2022-10-16T04:54:18;3.58;;;2.05;;
19436;SDS011;9854;50.968;4.168;2022-10-16T04:56:44;2.97;;;2.13;;
19436;SDS011;9854;50.968;4.168;2022-10-16T04:59:13;7.05;;;2.40;;
19436;SDS011;9854;50.968;4.168;2022-10-16T05:01:39;2.95;;;2.33;;
19436;SDS011;9854;50.968;4.168;2022-10-16T05:04:05;4.95;;;2.50;;
19436;SDS011;9854;50.968;4.168;2022-10-16T05:06:31;5.78;;;2.28;;
19436;SDS011;9854;50.968;4.168;2022-10-16T05:08:56;6.05;;;2.55;;
19436;SDS011;9854;50.968;4.168;2022-10-16T05:11:22;9.93;;;2.45;;
19436;SDS011;9854;50.968;4.168;2022-10-16T05:13:48;4.03;;;2.40;;
19436;SDS011;9854;50.968;4.168;2022-10-16T05:16:13;5.10;;;2.40;;
19436;SDS011;9854;50.968;4.168;2022-10-16T05:18:39;4.00;;;2.30;;
19436;SDS011;9854;50.968;4.168;2022-10-16T05:21:05;2.88;;;2.25;;
19436;SDS011;9854;50.968;4.168;2022-10-16T05:23:31;9.00;;;2.22;;
19436;SDS011;9854;50.968;4.168;2022-10-16T05:25:57;7.05;;;2.40;;
19436;SDS011;9854;50.968;4.168;2022-10-16T05:28:26;5.00;;;2.40;;
19436;SDS011;9854;50.968;4.168;2022-10-16T05:30:53;5.35;;;2.17;;
19436;SDS011;9854;50.968;4.168;2022-10-16T05:33:20;3.58;;;2.22;;
19436;SDS011;9854;50.968;4.168;2022-10-16T05:35:46;6.03;;;2.65;;
19436;SDS011;9854;50.968;4.168;2022-10-16T05:38:11;3.60;;;2.67;;
19436;SDS011;9854;50.968;4.168;2022-10-16T05:40:37;4.95;;;2.50;;
19436;SDS011;9854;50.968;4.168;2022-10-16T05:43:02;5.47;;;2.53;;
19436;SDS011;9854;50.968;4.168;2022-10-16T05:45:28;6.32;;;2.33;;
19436;SDS011;9854;50.968;4.168;2022-10-16T05:47:54;11.00;;;2.53;;
19436;SDS011;9854;50.968;4.168;2022-10-16T05:50:19;3.80;;;2.28;;
19436;SDS011;9854;50.968;4.168;2022-10-16T05:52:45;6.32;;;2.78;;
19436;SDS011;9854;50.968;4.168;2022-10-16T05:55:11;3.45;;;2.35;;
19436;SDS011;9854;50.968;4.168;2022-10-16T05:57:36;3.65;;;2.65;;
19436;SDS011;9854;50.968;4.168;2022-10-16T06:00:02;3.50;;;2.30;;
19436;SDS011;9854;50.968;4.168;2022-10-16T06:02:29;6.78;;;2.90;;
19436;SDS011;9854;50.968;4.168;2022-10-16T06:04:54;7.22;;;2.72;;
19436;SDS011;9854;50.968;4.168;2022-10-16T06:07:20;4.88;;;2.88;;
19436;SDS011;9854;50.968;4.168;2022-10-16T06:09:50;4.63;;;2.58;;
19436;SDS011;9854;50.968;4.168;2022-10-16T06:12:16;12.00;;;3.05;;
19436;SDS011;9854;50.968;4.168;2022-10-16T06:14:42;3.75;;;2.70;;
19436;SDS011;9854;50.968;4.168;2022-10-16T06:17:07;5.70;;;2.65;;
19436;SDS011;9854;50.968;4.168;2022-10-16T06:19:33;8.13;;;3.13;;
19436;SDS011;9854;50.968;4.168;2022-10-16T06:21:59;2.90;;;2.58;;
19436;SDS011;9854;50.968;4.168;2022-10-16T06:24:25;10.80;;;3.13;;
19436;SDS011;9854;50.968;4.168;2022-10-16T06:26:51;3.42;;;2.75;;
19436;SDS011;9854;50.968;4.168;2022-10-16T06:29:16;5.78;;;2.67;;
19436;SDS011;9854;50.968;4.168;2022-10-16T06:31:42;6.60;;;2.72;;
19436;SDS011;9854;50.968;4.168;2022-10-16T06:34:08;4.20;;;2.30;;
19436;SDS011;9854;50.968;4.168;2022-10-16T06:36:35;3.47;;;2.80;;
19436;SDS011;9854;50.968;4.168;2022-10-16T06:39:02;8.55;;;2.88;;
19436;SDS011;9854;50.968;4.168;2022-10-16T06:41:28;5.32;;;2.53;;
19436;SDS011;9854;50.968;4.168;2022-10-16T06:43:53;4.35;;;2.45;;
19436;SDS011;9854;50.968;4.168;2022-10-16T06:46:20;3.60;;;2.80;;
19436;SDS011;9854;50.968;4.168;2022-10-16T06:48:47;9.63;;;2.70;;
19436;SDS011;9854;50.968;4.168;2022-10-16T06:51:14;2.58;;;2.38;;
19436;SDS011;9854;50.968;4.168;2022-10-16T06:53:42;5.97;;;2.90;;
19436;SDS011;9854;50.968;4.168;2022-10-16T06:56:13;6.22;;;2.67;;
19436;SDS011;9854;50.968;4.168;2022-10-16T06:58:41;4.45;;;2.40;;
19436;SDS011;9854;50.968;4.168;2022-10-16T07:01:07;6.20;;;2.20;;
19436;SDS011;9854;50.968;4.168;2022-10-16T07:03:35;4.72;;;2.17;;
19436;SDS011;9854;50.968;4.168;2022-10-16T07:06:03;7.13;;;2.80;;
19436;SDS011;9854;50.968;4.168;2022-10-16T07:08:33;5.28;;;2.60;;
19436;SDS011;9854;50.968;4.168;2022-10-16T07:11:00;5.20;;;2.42;;
19436;SDS011;9854;50.968;4.168;2022-10-16T07:13:27;5.82;;;2.13;;
19436;SDS011;9854;50.968;4.168;2022-10-16T07:15:53;5.38;;;2.15;;
19436;SDS011;9854;50.968;4.168;2022-10-16T07:18:19;8.35;;;2.15;;
19436;SDS011;9854;50.968;4.168;2022-10-16T07:20:44;4.20;;;2.15;;
19436;SDS011;9854;50.968;4.168;2022-10-16T07:23:10;6.07;;;2.42;;
19436;SDS011;9854;50.968;4.168;2022-10-16T07:25:35;4.32;;;2.28;;
19436;SDS011;9854;50.968;4.168;2022-10-16T07:28:01;4.53;;;1.90;;
19436;SDS011;9854;50.968;4.168;2022-10-16T07:30:27;3.25;;;2.15;;
19436;SDS011;9854;50.968;4.168;2022-10-16T07:32:52;6.32;;;2.20;;
19436;SDS011;9854;50.968;4.168;2022-10-16T07:35:18;5.85;;;2.70;;
19436;SDS011;9854;50.968;4.168;2022-10-16T07:37:44;6.25;;;2.35;;
19436;SDS011;9854;50.968;4.168;2022-10-16T07:40:10;5.03;;;2.38;;
19436;SDS011;9854;50.968;4.168;2022-10-16T07:42:36;4.13;;;2.50;;
19436;SDS011;9854;50.968;4.168;2022-10-16T07:45:02;6.60;;;2.00;;
19436;SDS011;9854;50.968;4.168;2022-10-16T07:47:28;5.13;;;2.03;;
19436;SDS011;9854;50.968;4.168;2022-10-16T07:49:53;6.07;;;2.17;;
19436;SDS011;9854;50.968;4.168;2022-10-16T07:52:19;3.75;;;2.10;;
19436;SDS011;9854;50.968;4.168;2022-10-16T07:54:44;3.58;;;2.03;;
19436;SDS011;9854;50.968;4.168;2022-10-16T07:57:10;3.55;;;2.53;;
19436;SDS011;9854;50.968;4.168;2022-10-16T07:59:36;3.80;;;1.90;;
19436;SDS011;9854;50.968;4.168;2022-10-16T08:02:02;3.58;;;1.80;;
19436;SDS011;9854;50.968;4.168;2022-10-16T08:04:27;3.28;;;2.03;;
19436;SDS011;9854;50.968;4.168;2022-10-16T08:06:53;5.30;;;1.98;;
19436;SDS011;9854;50.968;4.168;2022-10-16T08:09:19;4.88;;;2.10;;
19436;SDS011;9854;50.968;4.168;2022-10-16T08:11:44;5.97;;;2.00;;
19436;SDS011;9854;50.968;4.168;2022-10-16T08:14:10;3.58;;;1.92;;
19436;SDS011;9854;50.968;4.168;2022-10-16T08:16:36;8.43;;;1.95;;
19436;SDS011;9854;50.968;4.168;2022-10-16T08:19:01;7.07;;;1.85;;
19436;SDS011;9854;50.968;4.168;2022-10-16T08:21:27;5.78;;;1.75;;
19436;SDS011;9854;50.968;4.168;2022-10-16T08:23:53;6.25;;;1.77;;
19436;SDS011;9854;50.968;4.168;2022-10-16T08:26:20;6.30;;;1.98;;
19436;SDS011;9854;50.968;4.168;2022-10-16T08:28:45;11.50;;;2.20;;
19436;SDS011;9854;50.968;4.168;2022-10-16T08:31:15;6.40;;;1.83;;
19436;SDS011;9854;50.968;4.168;2022-10-16T08:33:41;4.45;;;1.65;;
19436;SDS011;9854;50.968;4.168;2022-10-16T08:36:09;6.72;;;1.80;;
19436;SDS011;9854;50.968;4.168;2022-10-16T08:38:36;3.35;;;1.50;;
19436;SDS011;9854;50.968;4.168;2022-10-16T08:46:24;7.90;;;2.15;;
19436;SDS011;9854;50.968;4.168;2022-10-16T08:49:10;10.38;;;1.80;;
19436;SDS011;9854;50.968;4.168;2022-10-16T08:51:38;3.17;;;1.70;;
19436;SDS011;9854;50.968;4.168;2022-10-16T08:54:06;6.88;;;1.95;;
19436;SDS011;9854;50.968;4.168;2022-10-16T08:56:36;3.45;;;1.20;;
19436;SDS011;9854;50.968;4.168;2022-10-16T08:59:02;7.35;;;1.58;;
19436;SDS011;9854;50.968;4.168;2022-10-16T09:01:41;7.07;;;1.85;;
19436;SDS011;9854;50.968;4.168;2022-10-16T09:09:33;4.30;;;1.50;;
19436;SDS011;9854;50.968;4.168;2022-10-16T09:14:45;12.90;;;2.05;;
19436;SDS011;9854;50.968;4.168;2022-10-16T09:23:08;4.85;;;1.48;;
19436;SDS011;9854;50.968;4.168;2022-10-16T09:25:41;8.18;;;1.52;;
19436;SDS011;9854;50.968;4.168;2022-10-16T09:28:09;5.05;;;1.63;;
19436;SDS011;9854;50.968;4.168;2022-10-16T09:30:35;10.75;;;1.95;;
19436;SDS011;9854;50.968;4.168;2022-10-16T09:33:02;8.70;;;2.10;;
19436;SDS011;9854;50.968;4.168;2022-10-16T09:35:33;4.90;;;1.65;;
19436;SDS011;9854;50.968;4.168;2022-10-16T09:40:53;6.47;;;1.83;;
19436;SDS011;9854;50.968;4.168;2022-10-16T09:43:54;6.22;;;1.52;;
19436;SDS011;9854;50.968;4.168;2022-10-16T09:46:45;11.10;;;1.63;;
19436;SDS011;9854;50.968;4.168;2022-10-16T09:49:23;7.63;;;1.83;;
19436;SDS011;9854;50.968;4.168;2022-10-16T09:51:50;4.85;;;1.20;;
19436;SDS011;9854;50.968;4.168;2022-10-16T09:54:27;5.15;;;1.48;;
19436;SDS011;9854;50.968;4.168;2022-10-16T09:56:52;5.53;;;1.40;;
19436;SDS011;9854;50.968;4.168;2022-10-16T09:59:31;5.50;;;1.40;;
19436;SDS011;9854;50.968;4.168;2022-10-16T10:01:58;7.25;;;1.77;;
19436;SDS011;9854;50.968;4.168;2022-10-16T10:04:36;6.10;;;1.17;;
19436;SDS011;9854;50.968;4.168;2022-10-16T10:07:04;6.38;;;1.42;;
19436;SDS011;9854;50.968;4.168;2022-10-16T10:09:31;4.75;;;1.40;;
19436;SDS011;9854;50.968;4.168;2022-10-16T10:12:03;9.43;;;1.73;;
19436;SDS011;9854;50.968;4.168;2022-10-16T10:22:26;8.57;;;1.17;;
19436;SDS011;9854;50.968;4.168;2022-10-16T10:27:40;3.83;;;1.40;;
19436;SDS011;9854;50.968;4.168;2022-10-16T10:30:24;6.38;;;1.60;;
19436;SDS011;9854;50.968;4.168;2022-10-16T10:33:49;6.82;;;1.90;;
19436;SDS011;9854;50.968;4.168;2022-10-16T10:36:00;8.18;;;1.60;;
19436;SDS011;9854;50.968;4.168;2022-10-16T10:38:41;6.18;;;1.40;;
19436;SDS011;9854;50.968;4.168;2022-10-16T10:41:44;6.72;;;1.55;;
19436;SDS011;9854;50.968;4.168;2022-10-16T10:44:33;6.85;;;1.55;;
19436;SDS011;9854;50.968;4.168;2022-10-16T10:47:36;7.50;;;1.33;;
19436;SDS011;9854;50.968;4.168;2022-10-16T11:00:20;6.60;;;1.38;;
19436;SDS011;9854;50.968;4.168;2022-10-16T11:08:36;12.45;;;2.20;;
19436;SDS011;9854;50.968;4.168;2022-10-16T11:11:14;7.93;;;1.48;;
19436;SDS011;9854;50.968;4.168;2022-10-16T11:13:58;8.32;;;1.50;;
19436;SDS011;9854;50.968;4.168;2022-10-16T11:16:35;6.13;;;1.50;;
19436;SDS011;9854;50.968;4.168;2022-10-16T11:24:49;4.85;;;1.20;;
19436;SDS011;9854;50.968;4.168;2022-10-16T11:27:21;10.32;;;1.65;;
19436;SDS011;9854;50.968;4.168;2022-10-16T11:29:57;6.88;;;1.42;;
19436;SDS011;9854;50.968;4.168;2022-10-16T11:32:33;8.38;;;1.35;;
19436;SDS011;9854;50.968;4.168;2022-10-16T11:35:11;6.95;;;1.50;;
19436;SDS011;9854;50.968;4.168;2022-10-16T11:37:50;5.00;;;1.02;;
19436;SDS011;9854;50.968;4.168;2022-10-16T11:40:32;1.88;;;1.02;;
19436;SDS011;9854;50.968;4.168;2022-10-16T11:43:10;5.78;;;1.25;;
19436;SDS011;9854;50.968;4.168;2022-10-16T11:56:03;4.25;;;1.13;;
19436;SDS011;9854;50.968;4.168;2022-10-16T11:58:30;3.08;;;1.35;;
19436;SDS011;9854;50.968;4.168;2022-10-16T12:06:34;4.45;;;1.05;;
19436;SDS011;9854;50.968;4.168;2022-10-16T12:09:43;8.82;;;1.25;;
19436;SDS011;9854;50.968;4.168;2022-10-16T12:12:03;5.53;;;1.00;;
19436;SDS011;9854;50.968;4.168;2022-10-16T12:19:30;4.35;;;0.80;;
19436;SDS011;9854;50.968;4.168;2022-10-16T12:21:56;3.63;;;1.00;;
19436;SDS011;9854;50.968;4.168;2022-10-16T12:26:56;6.72;;;1.00;;
19436;SDS011;9854;50.968;4.168;2022-10-16T12:29:36;2.40;;;1.02;;
19436;SDS011;9854;50.968;4.168;2022-10-16T12:32:05;2.72;;;0.93;;
19436;SDS011;9854;50.968;4.168;2022-10-16T12:34:47;6.32;;;1.17;;
19436;SDS011;9854;50.968;4.168;2022-10-16T12:37:23;6.93;;;1.20;;
19436;SDS011;9854;50.968;4.168;2022-10-16T12:39:53;6.00;;;1.20;;
19436;SDS011;9854;50.968;4.168;2022-10-16T12:42:22;2.55;;;0.93;;
19436;SDS011;9854;50.968;4.168;2022-10-16T12:44:51;4.38;;;1.27;;
19436;SDS011;9854;50.968;4.168;2022-10-16T12:47:24;6.00;;;1.13;;
19436;SDS011;9854;50.968;4.168;2022-10-16T12:50:02;4.93;;;1.00;;
19436;SDS011;9854;50.968;4.168;2022-10-16T12:52:47;3.42;;;1.15;;
19436;SDS011;9854;50.968;4.168;2022-10-16T12:55:17;4.20;;;0.98;;
19436;SDS011;9854;50.968;4.168;2022-10-16T13:02:55;9.10;;;1.20;;
19436;SDS011;9854;50.968;4.168;2022-10-16T13:11:05;5.78;;;0.98;;
19436;SDS011;9854;50.968;4.168;2022-10-16T13:14:09;5.65;;;1.27;;
19436;SDS011;9854;50.968;4.168;2022-10-16T13:17:05;1.63;;;0.95;;
19436;SDS011;9854;50.968;4.168;2022-10-16T13:19:42;3.03;;;1.13;;
19436;SDS011;9854;50.968;4.168;2022-10-16T13:30:27;4.20;;;1.30;;
19436;SDS011;9854;50.968;4.168;2022-10-16T13:32:58;3.85;;;1.02;;
19436;SDS011;9854;50.968;4.168;2022-10-16T13:35:25;5.93;;;1.92;;
19436;SDS011;9854;50.968;4.168;2022-10-16T13:40:47;7.22;;;1.08;;
19436;SDS011;9854;50.968;4.168;2022-10-16T13:43:36;3.03;;;0.98;;
19436;SDS011;9854;50.968;4.168;2022-10-16T13:46:11;6.55;;;0.88;;
19436;SDS011;9854;50.968;4.168;2022-10-16T13:48:38;3.33;;;1.65;;
19436;SDS011;9854;50.968;4.168;2022-10-16T13:51:15;7.55;;;1.00;;
19436;SDS011;9854;50.968;4.168;2022-10-16T13:53:42;4.88;;;0.93;;
19436;SDS011;9854;50.968;4.168;2022-10-16T13:56:13;2.22;;;0.95;;
19436;SDS011;9854;50.968;4.168;2022-10-16T13:58:41;4.82;;;1.10;;
19436;SDS011;9854;50.968;4.168;2022-10-16T14:01:26;4.70;;;0.80;;
19436;SDS011;9854;50.968;4.168;2022-10-16T14:04:05;3.78;;;0.90;;
19436;SDS011;9854;50.968;4.168;2022-10-16T14:06:33;5.07;;;0.90;;
19436;SDS011;9854;50.968;4.168;2022-10-16T14:09:02;5.38;;;0.90;;
19436;SDS011;9854;50.968;4.168;2022-10-16T14:11:42;6.85;;;1.10;;
19436;SDS011;9854;50.968;4.168;2022-10-16T14:14:13;3.03;;;0.98;;
19436;SDS011;9854;50.968;4.168;2022-10-16T14:16:40;4.68;;;0.75;;
19436;SDS011;9854;50.968;4.168;2022-10-16T14:19:12;3.50;;;1.00;;
19436;SDS011;9854;50.968;4.168;2022-10-16T14:21:51;4.07;;;1.08;;
19436;SDS011;9854;50.968;4.168;2022-10-16T14:26:55;10.25;;;2.65;;
19436;SDS011;9854;50.968;4.168;2022-10-16T14:29:21;3.28;;;1.27;;
19436;SDS011;9854;50.968;4.168;2022-10-16T14:31:55;2.30;;;1.35;;
19436;SDS011;9854;50.968;4.168;2022-10-16T14:37:23;4.45;;;1.05;;
19436;SDS011;9854;50.968;4.168;2022-10-16T14:39:51;2.63;;;1.15;;
19436;SDS011;9854;50.968;4.168;2022-10-16T14:42:18;3.08;;;1.40;;
19436;SDS011;9854;50.968;4.168;2022-10-16T14:44:48;2.15;;;1.15;;
19436;SDS011;9854;50.968;4.168;2022-10-16T14:47:18;6.43;;;1.23;;
19436;SDS011;9854;50.968;4.168;2022-10-16T14:49:51;4.90;;;1.33;;
19436;SDS011;9854;50.968;4.168;2022-10-16T14:52:19;4.20;;;1.50;;
19436;SDS011;9854;50.968;4.168;2022-10-16T14:54:48;3.38;;;1.30;;
19436;SDS011;9854;50.968;4.168;2022-10-16T14:57:18;2.78;;;1.23;;
19436;SDS011;9854;50.968;4.168;2022-10-16T14:59:47;5.30;;;0.90;;
19436;SDS011;9854;50.968;4.168;2022-10-16T15:02:25;5.97;;;1.70;;
19436;SDS011;9854;50.968;4.168;2022-10-16T15:04:52;7.05;;;1.58;;
19436;SDS011;9854;50.968;4.168;2022-10-16T15:07:18;7.95;;;1.77;;
19436;SDS011;9854;50.968;4.168;2022-10-16T15:09:43;11.25;;;1.63;;
19436;SDS011;9854;50.968;4.168;2022-10-16T15:12:09;10.90;;;5.85;;
19436;SDS011;9854;50.968;4.168;2022-10-16T15:14:34;13.13;;;8.35;;
19436;SDS011;9854;50.968;4.168;2022-10-16T15:17:00;10.20;;;5.68;;
19436;SDS011;9854;50.968;4.168;2022-10-16T15:19:26;6.60;;;3.95;;
19436;SDS011;9854;50.968;4.168;2022-10-16T15:21:51;9.63;;;2.20;;
19436;SDS011;9854;50.968;4.168;2022-10-16T15:24:17;5.30;;;1.80;;
19436;SDS011;9854;50.968;4.168;2022-10-16T15:26:43;4.20;;;2.20;;
19436;SDS011;9854;50.968;4.168;2022-10-16T15:29:10;2.70;;;1.50;;
19436;SDS011;9854;50.968;4.168;2022-10-16T15:31:36;2.88;;;1.60;;
19436;SDS011;9854;50.968;4.168;2022-10-16T15:34:02;3.08;;;1.38;;
19436;SDS011;9854;50.968;4.168;2022-10-16T15:36:31;2.40;;;1.10;;
19436;SDS011;9854;50.968;4.168;2022-10-16T15:39:01;5.07;;;1.23;;
19436;SDS011;9854;50.968;4.168;2022-10-16T15:41:28;5.75;;;1.70;;
19436;SDS011;9854;50.968;4.168;2022-10-16T15:43:53;3.78;;;1.30;;
19436;SDS011;9854;50.968;4.168;2022-10-16T15:46:19;6.32;;;2.47;;
19436;SDS011;9854;50.968;4.168;2022-10-16T15:48:47;6.72;;;2.22;;
19436;SDS011;9854;50.968;4.168;2022-10-16T15:51:14;4.25;;;2.92;;
19436;SDS011;9854;50.968;4.168;2022-10-16T15:53:40;8.52;;;4.90;;
19436;SDS011;9854;50.968;4.168;2022-10-16T15:56:06;10.20;;;7.35;;
19436;SDS011;9854;50.968;4.168;2022-10-16T15:58:33;12.20;;;7.60;;
19436;SDS011;9854;50.968;4.168;2022-10-16T16:00:59;8.95;;;6.35;;
19436;SDS011;9854;50.968;4.168;2022-10-16T16:03:26;9.27;;;5.40;;
19436;SDS011;9854;50.968;4.168;2022-10-16T16:05:53;8.07;;;4.95;;
19436;SDS011;9854;50.968;4.168;2022-10-16T16:08:20;6.45;;;3.53;;
19436;SDS011;9854;50.968;4.168;2022-10-16T16:10:56;4.15;;;2.45;;
19436;SDS011;9854;50.968;4.168;2022-10-16T16:13:22;2.65;;;2.05;;
19436;SDS011;9854;50.968;4.168;2022-10-16T16:15:48;4.15;;;2.17;;
19436;SDS011;9854;50.968;4.168;2022-10-16T16:18:14;5.75;;;2.38;;
19436;SDS011;9854;50.968;4.168;2022-10-16T16:20:39;3.22;;;1.73;;
19436;SDS011;9854;50.968;4.168;2022-10-16T16:23:05;5.45;;;2.10;;
19436;SDS011;9854;50.968;4.168;2022-10-16T16:25:31;6.43;;;2.15;;
19436;SDS011;9854;50.968;4.168;2022-10-16T16:27:56;8.23;;;2.72;;
19436;SDS011;9854;50.968;4.168;2022-10-16T16:30:22;3.00;;;2.17;;
19436;SDS011;9854;50.968;4.168;2022-10-16T16:32:47;6.07;;;2.50;;
19436;SDS011;9854;50.968;4.168;2022-10-16T16:35:13;5.88;;;3.08;;
19436;SDS011;9854;50.968;4.168;2022-10-16T16:37:39;7.90;;;3.22;;
19436;SDS011;9854;50.968;4.168;2022-10-16T16:40:04;6.70;;;2.70;;
19436;SDS011;9854;50.968;4.168;2022-10-16T16:42:30;5.97;;;2.67;;
19436;SDS011;9854;50.968;4.168;2022-10-16T16:44:56;5.50;;;2.88;;
19436;SDS011;9854;50.968;4.168;2022-10-16T16:47:22;4.72;;;2.60;;
19436;SDS011;9854;50.968;4.168;2022-10-16T16:49:47;4.50;;;2.65;;
19436;SDS011;9854;50.968;4.168;2022-10-16T16:52:13;6.50;;;2.65;;
19436;SDS011;9854;50.968;4.168;2022-10-16T16:54:39;8.05;;;2.42;;
19436;SDS011;9854;50.968;4.168;2022-10-16T16:57:05;8.60;;;3.75;;
19436;SDS011;9854;50.968;4.168;2022-10-16T16:59:30;6.63;;;3.00;;
19436;SDS011;9854;50.968;4.168;2022-10-16T17:01:59;8.77;;;2.13;;
19436;SDS011;9854;50.968;4.168;2022-10-16T17:04:25;5.75;;;2.30;;
19436;SDS011;9854;50.968;4.168;2022-10-16T17:06:52;7.88;;;2.60;;
19436;SDS011;9854;50.968;4.168;2022-10-16T17:09:20;15.82;;;2.63;;
19436;SDS011;9854;50.968;4.168;2022-10-16T17:11:47;16.42;;;4.45;;
19436;SDS011;9854;50.968;4.168;2022-10-16T17:14:13;11.15;;;6.93;;
19436;SDS011;9854;50.968;4.168;2022-10-16T17:16:40;16.45;;;7.07;;
19436;SDS011;9854;50.968;4.168;2022-10-16T17:19:14;12.68;;;6.00;;
19436;SDS011;9854;50.968;4.168;2022-10-16T17:21:40;11.90;;;6.18;;